Loodiep — A8ZO7 — position and weather

sailwx.info

Track history (hours):
 
Tides and Currents Weather Stations Pressure Air Temp Water Temp Dewpoint Dewpoint Depression Visibility Wind Speed Wind Dir Waves Ship Positions

Loodiep

Last reported at 2015-Aug-31 02:33 UTC. Time now 2015-Aug-31 02:36 UTC.
Position N 37°38' E 009°38'.

Length 108 m; draft 7.2 m.

Type: Cargo ship. MMSI: 636015263.

Date/timePositionNaut miles runAvg speedWind from/ knotsBaromVisibWave heightAir tempDewpointWater temp
2015-Aug-31 02:33N 37°38' E 009°38'31 9.4
2015-Aug-30 23:13N 37°40' E 010°18'6 9.4
2015-Aug-30 22:33N 37°40' E 010°26'9 9.4
2015-Aug-30 21:33N 37°39' E 010°37'10 9.4
2015-Aug-30 20:31N 37°39' E 010°50'9 9.7
2015-Aug-30 19:33N 37°39' E 011°02'10 9.8
2015-Aug-30 18:33N 37°39' E 011°14'12 9.8
2015-Aug-30 17:21N 37°39' E 011°29'910.6
2015-Aug-30 16:31N 37°38' E 011°40'1010.0
2015-Aug-30 15:33N 37°36' E 011°52'1010.3
2015-Aug-30 14:33N 37°31' E 012°03'1010.4
2015-Aug-30 13:33N 37°27' E 012°15'1010.0
2015-Aug-30 12:33N 37°23' E 012°27'10 9.8
2015-Aug-30 11:33N 37°20' E 012°39'10 9.9
2015-Aug-30 10:33N 37°16' E 012°50'1010.0
2015-Aug-30 09:33N 37°12' E 013°02'1010.2
2015-Aug-30 08:33N 37°08' E 013°13'1010.0
2015-Aug-30 07:33N 37°04' E 013°25'1110.3
2015-Aug-30 06:30N 36°59' E 013°37'2010.1
2015-Aug-30 04:31N 36°52' E 014°00'70 8.7
2015-Aug-29 20:33N 36°51' E 015°27'2010.0
2015-Aug-29 18:30N 37°06' E 015°44'9 9.4
2015-Aug-29 17:30N 37°14' E 015°51'12 9.9
2015-Aug-29 16:18N 37°23' E 015°60'  
Track history (hours):
 
Tides and Currents Weather Stations Pressure Air Temp Water Temp Dewpoint Dewpoint Depression Visibility Wind Speed Wind Dir Waves Ship Positions

Loodiep

Last reported at 2015-Aug-31 02:33 UTC. Time now 2015-Aug-31 02:36 UTC.
Position N 37°38' E 009°38'.

Length 108 m; draft 7.2 m.

Type: Cargo ship. MMSI: 636015263.

Date/timePositionNaut miles runAvg speedWind from/ knotsBaromVisibWave heightAir tempDewpointWater temp
2015-Aug-31 02:33N 37°38' E 009°38'31 9.4
2015-Aug-30 23:13N 37°40' E 010°18'6 9.4
2015-Aug-30 22:33N 37°40' E 010°26'9 9.4
2015-Aug-30 21:33N 37°39' E 010°37'10 9.4
2015-Aug-30 20:31N 37°39' E 010°50'9 9.7
2015-Aug-30 19:33N 37°39' E 011°02'10 9.8
2015-Aug-30 18:33N 37°39' E 011°14'12 9.8
2015-Aug-30 17:21N 37°39' E 011°29'910.6
2015-Aug-30 16:31N 37°38' E 011°40'1010.0
2015-Aug-30 15:33N 37°36' E 011°52'1010.3
2015-Aug-30 14:33N 37°31' E 012°03'1010.4
2015-Aug-30 13:33N 37°27' E 012°15'1010.0
2015-Aug-30 12:33N 37°23' E 012°27'10 9.8
2015-Aug-30 11:33N 37°20' E 012°39'10 9.9
2015-Aug-30 10:33N 37°16' E 012°50'1010.0
2015-Aug-30 09:33N 37°12' E 013°02'1010.2
2015-Aug-30 08:33N 37°08' E 013°13'1010.0
2015-Aug-30 07:33N 37°04' E 013°25'1110.3
2015-Aug-30 06:30N 36°59' E 013°37'2010.1
2015-Aug-30 04:31N 36°52' E 014°00'70 8.7
2015-Aug-29 20:33N 36°51' E 015°27'2010.0
2015-Aug-29 18:30N 37°06' E 015°44'9 9.4
2015-Aug-29 17:30N 37°14' E 015°51'12 9.9
2015-Aug-29 16:18N 37°23' E 015°60'  

Dump ship's entire track history